Time;durP1;ratioP1;P1;durP2;ratioP2;P2;SDS_P1;SDS_P2;PMS_P1;PMS_P2;Temp;Humidity;BMP_temperature;BMP_pressure;BME280_temperature;BME280_humidity;BME280_pressure;Samples;Min_cycle;Max_cycle;Signal;HPM_P1;HPM_P2
2021/07/29 00:00:04;;;;;;;24.20;15.77;;;19.50;99.90;;;;;;5120031;28;20207;-70
2021/07/29 00:02:51;;;;;;;24.27;15.63;;;19.50;99.90;;;;;;5127819;27;20202;-70
2021/07/29 00:05:39;;;;;;;24.87;14.90;;;19.50;99.90;;;;;;5129725;27;20223;-70
2021/07/29 00:08:26;;;;;;;21.67;14.87;;;19.40;99.90;;;;;;5114108;27;20205;-70
2021/07/29 00:11:19;;;;;;;24.07;14.40;;;19.50;99.90;;;;;;5111991;27;20205;-71
2021/07/29 00:14:08;;;;;;;23.20;13.60;;;19.40;99.90;;;;;;5129678;28;20208;-71
2021/07/29 00:16:59;;;;;;;22.47;14.27;;;19.40;99.90;;;;;;5110291;28;20562;-71
2021/07/29 00:19:46;;;;;;;20.30;14.57;;;19.30;99.90;;;;;;5110758;28;20205;-71
2021/07/29 00:22:33;;;;;;;17.83;13.90;;;19.30;99.90;;;;;;5111806;28;20233;-71
2021/07/29 00:26:04;;;;;;;18.60;12.43;;;19.30;99.90;;;;;;5129535;28;20267;-71
2021/07/29 00:28:51;;;;;;;19.47;11.63;;;19.30;99.90;;;;;;5120175;28;20673;-71
2021/07/29 00:31:40;;;;;;;19.03;12.50;;;19.30;99.90;;;;;;5117440;28;20302;-70
2021/07/29 00:34:28;;;;;;;18.17;12.43;;;19.30;99.90;;;;;;5128271;28;20201;-70
2021/07/29 00:37:16;;;;;;;20.20;13.03;;;19.30;99.90;;;;;;5117868;28;20210;-70
2021/07/29 00:40:03;;;;;;;19.47;12.87;;;19.30;99.90;;;;;;5123998;28;20197;-70
2021/07/29 00:42:51;;;;;;;20.83;13.70;;;19.30;99.90;;;;;;5121920;28;20202;-71
2021/07/29 00:45:38;;;;;;;21.00;13.27;;;19.30;99.90;;;;;;5119580;28;20228;-71
2021/07/29 00:48:27;;;;;;;20.07;13.43;;;19.20;99.90;;;;;;5125519;28;20255;-71
2021/07/29 00:51:15;;;;;;;22.13;13.50;;;19.20;99.90;;;;;;5120771;28;20209;-71
2021/07/29 00:54:04;;;;;;;19.07;13.43;;;19.20;99.90;;;;;;5115292;28;20206;-71
2021/07/29 00:56:51;;;;;;;20.90;13.17;;;19.20;99.90;;;;;;5113933;27;20835;-71
2021/07/29 00:59:39;;;;;;;19.63;13.60;;;19.20;99.90;;;;;;5115801;28;20635;-70
2021/07/29 01:02:27;;;;;;;17.90;12.63;;;19.30;99.90;;;;;;5122249;28;20652;-70
2021/07/29 01:05:16;;;;;;;19.03;12.77;;;19.20;99.90;;;;;;5126550;28;20350;-71
2021/07/29 01:08:04;;;;;;;20.60;12.63;;;19.20;99.90;;;;;;5128503;28;20200;-70
2021/07/29 01:10:51;;;;;;;20.40;13.53;;;19.20;99.90;;;;;;5124695;28;20197;-70
2021/07/29 01:13:39;;;;;;;19.47;12.90;;;19.20;99.90;;;;;;5113971;27;20268;-71
2021/07/29 01:16:26;;;;;;;21.47;14.27;;;19.20;99.90;;;;;;5111816;28;20735;-70
2021/07/29 01:19:14;;;;;;;23.60;13.67;;;19.20;99.90;;;;;;5124633;28;20233;-71
2021/07/29 01:22:03;;;;;;;20.87;14.00;;;19.10;99.90;;;;;;5126483;28;20204;-70
2021/07/29 01:24:50;;;;;;;19.63;13.60;;;19.10;99.90;;;;;;5113992;27;20276;-71
2021/07/29 01:27:38;;;;;;;20.40;12.93;;;19.10;99.90;;;;;;5119405;27;20202;-70
2021/07/29 01:30:25;;;;;;;24.37;14.43;;;19.00;99.90;;;;;;5125615;27;20207;-71
2021/07/29 01:33:13;;;;;;;23.20;15.30;;;19.00;99.90;;;;;;5126438;27;20274;-70
2021/07/29 01:36:00;;;;;;;21.37;14.70;;;19.00;99.90;;;;;;5114932;27;20218;-71
2021/07/29 01:38:49;;;;;;;24.47;16.10;;;19.00;99.90;;;;;;5129696;27;20197;-70
2021/07/29 01:41:37;;;;;;;26.17;15.93;;;19.00;99.90;;;;;;5126516;27;20196;-71
2021/07/29 01:44:25;;;;;;;23.33;15.50;;;19.00;99.90;;;;;;5126288;27;20206;-71
2021/07/29 01:47:12;;;;;;;24.50;15.30;;;18.90;99.90;;;;;;5133495;27;20303;-70
2021/07/29 01:50:00;;;;;;;25.27;16.00;;;18.90;99.90;;;;;;5118673;27;20285;-71
2021/07/29 01:52:47;;;;;;;23.53;15.23;;;18.90;99.90;;;;;;5116388;27;20272;-71
2021/07/29 01:55:36;;;;;;;20.40;14.67;;;18.90;99.90;;;;;;5127432;27;20663;-70
2021/07/29 01:58:24;;;;;;;25.43;15.60;;;18.80;99.90;;;;;;5116234;27;20690;-71
2021/07/29 02:01:11;;;;;;;20.03;14.13;;;18.80;99.90;;;;;;5126833;27;20198;-71
2021/07/29 02:03:59;;;;;;;26.37;15.60;;;18.70;99.90;;;;;;5116292;27;20237;-71
2021/07/29 02:06:46;;;;;;;27.87;18.13;;;18.70;99.90;;;;;;5126051;27;20241;-71
2021/07/29 02:09:34;;;;;;;26.93;16.60;;;18.60;99.90;;;;;;5119396;27;20212;-70
2021/07/29 02:12:23;;;;;;;22.97;14.60;;;18.60;99.90;;;;;;5115593;27;20208;-71
2021/07/29 02:15:11;;;;;;;20.63;13.77;;;18.60;99.90;;;;;;5129075;27;20198;-71
2021/07/29 02:17:59;;;;;;;24.20;14.03;;;18.50;99.90;;;;;;5127395;27;20252;-70
2021/07/29 02:20:46;;;;;;;21.97;15.10;;;18.50;99.90;;;;;;5120815;27;20733;-71
2021/07/29 02:23:34;;;;;;;20.40;14.13;;;18.50;99.90;;;;;;5133029;27;20318;-71
2021/07/29 02:26:21;;;;;;;22.77;13.57;;;18.40;99.90;;;;;;5116350;27;20224;-71
2021/07/29 02:29:10;;;;;;;24.40;13.07;;;18.40;99.90;;;;;;5123505;27;20567;-71
2021/07/29 02:31:58;;;;;;;18.83;12.83;;;18.40;99.90;;;;;;5115938;27;20220;-71
2021/07/29 02:34:46;;;;;;;21.43;12.20;;;18.40;99.90;;;;;;5127889;27;20681;-71
2021/07/29 02:37:33;;;;;;;21.63;11.73;;;18.30;99.90;;;;;;5121726;27;20205;-71
2021/07/29 02:40:21;;;;;;;20.57;11.33;;;18.30;99.90;;;;;;5123984;27;20671;-71
2021/07/29 02:43:08;;;;;;;16.73;11.70;;;18.30;99.90;;;;;;5121026;27;20205;-71
2021/07/29 02:45:57;;;;;;;21.87;11.00;;;18.30;99.90;;;;;;5129906;27;20261;-71
2021/07/29 02:48:45;;;;;;;21.07;10.97;;;18.20;99.90;;;;;;5124503;27;20204;-71
2021/07/29 02:51:32;;;;;;;18.30;12.10;;;18.20;99.90;;;;;;5115478;27;20208;-71
2021/07/29 02:54:20;;;;;;;17.10;11.03;;;18.20;99.90;;;;;;5120203;27;20207;-71
2021/07/29 02:57:08;;;;;;;18.43;11.27;;;18.10;99.90;;;;;;5121050;27;20232;-70
2021/07/29 02:59:56;;;;;;;18.80;11.90;;;18.10;99.90;;;;;;5121831;27;20204;-70
2021/07/29 03:02:45;;;;;;;21.37;12.40;;;18.10;99.90;;;;;;5112725;27;20196;-70
2021/07/29 03:05:32;;;;;;;22.30;12.30;;;18.10;99.90;;;;;;5132566;27;20252;-70
2021/07/29 03:08:20;;;;;;;17.03;11.40;;;18.10;99.90;;;;;;5114400;27;20207;-69
2021/07/29 03:11:10;;;;;;;19.03;12.80;;;18.10;99.90;;;;;;5127918;27;20201;-70
2021/07/29 03:13:58;;;;;;;24.00;13.20;;;18.10;99.90;;;;;;5113641;27;20206;-70
2021/07/29 03:16:46;;;;;;;26.00;14.00;;;18.00;99.90;;;;;;5127060;27;20819;-70
2021/07/29 03:19:35;;;;;;;25.47;13.67;;;18.10;99.90;;;;;;5112272;28;20220;-70
2021/07/29 03:22:22;;;;;;;24.63;15.20;;;18.00;99.90;;;;;;5117032;27;20196;-70
2021/07/29 03:25:29;;;;;;;22.40;15.93;;;18.00;99.90;;;;;;5112594;28;20223;-70
2021/07/29 03:28:16;;;;;;;31.37;15.70;;;17.90;99.90;;;;;;5112002;28;20207;-70
2021/07/29 03:31:04;;;;;;;24.73;15.27;;;17.90;99.90;;;;;;5112743;28;20204;-70
2021/07/29 03:33:52;;;;;;;22.57;15.53;;;18.00;99.90;;;;;;5112828;27;20281;-70
2021/07/29 03:36:40;;;;;;;27.63;16.00;;;18.00;99.90;;;;;;5130420;27;20193;-70
2021/07/29 03:39:28;;;;;;;24.17;15.40;;;18.00;99.90;;;;;;5118649;27;20200;-70
2021/07/29 03:42:16;;;;;;;25.30;15.53;;;18.10;99.90;;;;;;5130622;27;20204;-70
2021/07/29 03:45:04;;;;;;;26.50;15.07;;;18.10;99.90;;;;;;5128433;27;20204;-70
2021/07/29 03:47:51;;;;;;;23.97;15.13;;;18.10;99.90;;;;;;5122389;27;20532;-70
2021/07/29 03:50:39;;;;;;;26.60;16.03;;;18.10;99.90;;;;;;5129983;27;20257;-70
2021/07/29 03:53:28;;;;;;;26.77;16.60;;;18.00;99.90;;;;;;5130937;27;20283;-69
2021/07/29 03:56:16;;;;;;;25.50;15.93;;;18.10;99.90;;;;;;5115761;27;20729;-70
2021/07/29 03:59:03;;;;;;;28.20;15.90;;;18.10;99.90;;;;;;5121724;27;20245;-70
2021/07/29 04:01:51;;;;;;;25.57;16.33;;;18.10;99.90;;;;;;5121288;27;20200;-70
2021/07/29 04:04:39;;;;;;;26.43;16.87;;;18.10;99.90;;;;;;5120494;27;20208;-70
2021/07/29 04:07:26;;;;;;;28.37;16.30;;;18.10;99.90;;;;;;5112973;27;20216;-70
2021/07/29 04:10:15;;;;;;;29.73;17.47;;;18.20;99.90;;;;;;5130887;28;20526;-70
2021/07/29 04:13:03;;;;;;;28.57;16.80;;;18.20;99.90;;;;;;5118273;28;20202;-70
2021/07/29 04:15:59;;;;;;;29.30;17.03;;;18.20;99.90;;;;;;5113633;28;20300;-70
2021/07/29 04:18:46;;;;;;;32.53;18.80;;;18.20;99.90;;;;;;5120969;28;20212;-70
2021/07/29 04:21:34;;;;;;;29.90;18.70;;;18.20;99.90;;;;;;5121128;28;20216;-70
2021/07/29 04:24:21;;;;;;;35.60;20.27;;;18.20;99.90;;;;;;5113210;28;20627;-70
2021/07/29 04:27:11;;;;;;;34.23;20.67;;;18.30;99.90;;;;;;5121578;28;20219;-70
2021/07/29 04:29:58;;;;;;;39.20;20.80;;;18.40;99.90;;;;;;5114839;28;20202;-70
2021/07/29 04:32:46;;;;;;;37.23;20.67;;;18.40;99.90;;;;;;5130354;27;20199;-70
2021/07/29 04:35:33;;;;;;;35.43;19.83;;;18.60;99.90;;;;;;5118797;28;20189;-70
2021/07/29 04:38:21;;;;;;;32.90;19.33;;;18.70;99.90;;;;;;5112494;28;20202;-70
2021/07/29 04:41:08;;;;;;;28.70;19.40;;;18.80;99.90;;;;;;5110952;28;20197;-70
2021/07/29 04:43:57;;;;;;;31.37;19.97;;;18.90;99.90;;;;;;5125452;28;20204;-70
2021/07/29 04:46:45;;;;;;;30.60;18.30;;;18.90;99.90;;;;;;5122278;28;20223;-70
2021/07/29 04:49:32;;;;;;;33.30;17.47;;;18.90;99.90;;;;;;5112981;28;20199;-70
2021/07/29 04:52:20;;;;;;;35.20;18.70;;;18.90;99.90;;;;;;5129558;28;20564;-70
2021/07/29 04:55:08;;;;;;;29.63;18.47;;;18.90;99.90;;;;;;5113089;28;20202;-70
2021/07/29 04:57:56;;;;;;;29.07;16.97;;;18.90;99.90;;;;;;5112127;28;20311;-70
2021/07/29 05:00:45;;;;;;;25.73;15.70;;;18.90;99.90;;;;;;5132410;27;20196;-70
2021/07/29 05:03:33;;;;;;;25.97;15.57;;;18.80;99.90;;;;;;5133640;27;20193;-70
2021/07/29 05:06:20;;;;;;;24.63;14.67;;;18.90;99.90;;;;;;5117379;27;20224;-70
2021/07/29 05:09:08;;;;;;;22.93;14.50;;;18.90;99.90;;;;;;5119928;27;20210;-70
2021/07/29 05:11:56;;;;;;;24.87;14.70;;;18.80;99.90;;;;;;5117004;27;20207;-70
2021/07/29 05:14:43;;;;;;;23.67;13.47;;;18.70;99.90;;;;;;5121954;27;20214;-70
2021/07/29 05:17:32;;;;;;;19.53;13.30;;;18.70;99.90;;;;;;5127299;27;20196;-70
2021/07/29 05:20:20;;;;;;;23.53;14.00;;;18.70;99.90;;;;;;5116410;27;20212;-70
2021/07/29 05:23:07;;;;;;;26.47;14.10;;;18.70;99.90;;;;;;5129305;27;20957;-69
2021/07/29 05:25:55;;;;;;;24.03;12.90;;;18.70;99.90;;;;;;5115952;27;20358;-70
2021/07/29 05:28:42;;;;;;;26.63;15.20;;;18.80;99.90;;;;;;5123379;27;20208;-70
2021/07/29 05:31:30;;;;;;;25.40;16.30;;;18.90;99.90;;;;;;5121716;27;20201;-69
2021/07/29 05:34:19;;;;;;;24.80;15.93;;;19.00;99.90;;;;;;5130933;27;20212;-70
2021/07/29 05:37:07;;;;;;;26.83;16.43;;;19.20;99.90;;;;;;5119653;27;20208;-70
2021/07/29 05:39:54;;;;;;;27.73;16.13;;;19.20;99.90;;;;;;5129455;27;20190;-70
2021/07/29 05:42:42;;;;;;;26.17;16.00;;;19.30;99.90;;;;;;5122857;27;20212;-69
2021/07/29 05:45:31;;;;;;;28.87;15.27;;;19.20;99.90;;;;;;5121118;27;20200;-69
2021/07/29 05:48:19;;;;;;;24.57;15.83;;;19.10;99.90;;;;;;5125510;27;20215;-69
2021/07/29 05:51:08;;;;;;;27.40;15.13;;;19.10;99.90;;;;;;5122986;27;20667;-69
2021/07/29 05:53:56;;;;;;;25.93;15.63;;;19.20;99.90;;;;;;5123640;27;20209;-71
2021/07/29 05:56:43;;;;;;;22.63;13.23;;;19.30;99.90;;;;;;5119874;27;20206;-69
2021/07/29 05:59:31;;;;;;;24.90;12.73;;;19.40;99.90;;;;;;5123927;27;20863;-70
2021/07/29 06:02:18;;;;;;;17.57;10.47;;;19.50;99.90;;;;;;5128890;27;20243;-69
2021/07/29 06:05:07;;;;;;;17.07;9.13;;;19.60;99.90;;;;;;5122837;27;20205;-70
2021/07/29 06:07:56;;;;;;;20.80;9.13;;;19.70;99.90;;;;;;5119375;27;20214;-70
2021/07/29 06:10:43;;;;;;;18.33;8.73;;;19.80;99.90;;;;;;5131014;27;20205;-70
2021/07/29 06:13:31;;;;;;;14.00;8.80;;;19.80;99.90;;;;;;5128992;27;20202;-70
2021/07/29 06:16:19;;;;;;;19.60;9.63;;;19.80;99.90;;;;;;5124641;27;20198;-70
2021/07/29 06:19:09;;;;;;;15.47;8.73;;;19.80;99.90;;;;;;5113690;27;20203;-70
2021/07/29 06:21:57;;;;;;;15.10;7.43;;;19.70;99.90;;;;;;5123315;27;20653;-70
2021/07/29 06:24:46;;;;;;;13.40;8.67;;;19.90;99.90;;;;;;5119826;27;20749;-70
2021/07/29 06:27:36;;;;;;;10.37;6.80;;;20.00;99.90;;;;;;5123582;27;20232;-66
2021/07/29 06:30:24;;;;;;;12.30;7.20;;;20.10;99.90;;;;;;5114385;27;20195;-66
2021/07/29 06:33:11;;;;;;;9.30;6.40;;;20.10;99.90;;;;;;5128001;27;20191;-66
2021/07/29 06:36:03;;;;;;;11.70;6.53;;;20.00;99.90;;;;;;5130442;27;20282;-65
2021/07/29 06:38:50;;;;;;;13.70;6.43;;;20.00;99.90;;;;;;5131834;27;20204;-65
2021/07/29 06:41:40;;;;;;;12.67;6.17;;;20.10;99.90;;;;;;5127511;27;20214;-66
2021/07/29 06:44:28;;;;;;;14.77;6.40;;;20.40;99.90;;;;;;5125612;27;20208;-65
2021/07/29 06:47:18;;;;;;;15.07;6.00;;;20.60;99.90;;;;;;5117565;27;20223;-66
2021/07/29 06:50:06;;;;;;;10.87;6.13;;;20.60;99.90;;;;;;5113073;27;20195;-66
2021/07/29 06:52:54;;;;;;;9.60;5.80;;;20.50;99.90;;;;;;5115644;27;20272;-66
2021/07/29 06:55:41;;;;;;;11.13;5.80;;;20.70;99.90;;;;;;5126130;27;20560;-66
2021/07/29 06:58:30;;;;;;;11.10;5.30;;;20.70;99.90;;;;;;5121101;27;20284;-66
2021/07/29 07:01:18;;;;;;;10.50;4.40;;;20.70;99.90;;;;;;5120942;27;20207;-66
2021/07/29 07:04:06;;;;;;;10.00;4.53;;;20.70;99.90;;;;;;5122455;27;20202;-66
2021/07/29 07:06:53;;;;;;;11.57;4.97;;;20.90;99.90;;;;;;5118629;27;20697;-66
2021/07/29 07:09:41;;;;;;;11.00;5.10;;;20.90;99.90;;;;;;5121160;27;20206;-66
2021/07/29 07:12:29;;;;;;;9.43;4.93;;;21.10;99.90;;;;;;5128849;27;20199;-66
2021/07/29 07:15:18;;;;;;;9.70;5.20;;;21.20;99.90;;;;;;5116437;27;20201;-66
2021/07/29 07:18:06;;;;;;;7.70;4.83;;;21.20;99.90;;;;;;5124562;27;20955;-66
2021/07/29 07:20:53;;;;;;;10.23;5.33;;;21.30;99.90;;;;;;5112551;28;20195;-66
2021/07/29 07:23:41;;;;;;;9.13;5.17;;;21.30;99.90;;;;;;5113581;27;20199;-66
2021/07/29 07:26:29;;;;;;;9.70;4.67;;;21.30;99.90;;;;;;5129174;27;20206;-66
2021/07/29 07:29:16;;;;;;;10.87;4.37;;;21.00;99.90;;;;;;5112731;27;20240;-66
2021/07/29 07:32:06;;;;;;;10.67;4.30;;;21.10;99.90;;;;;;5111398;28;20545;-65
2021/07/29 07:34:53;;;;;;;6.83;4.70;;;21.10;99.90;;;;;;5110385;28;20204;-65
2021/07/29 07:37:42;;;;;;;8.00;4.20;;;21.30;99.90;;;;;;5111463;28;20203;-66
2021/07/29 07:40:30;;;;;;;10.00;3.80;;;21.30;99.90;;;;;;5118667;27;20600;-66
2021/07/29 07:43:17;;;;;;;6.97;4.20;;;21.40;99.90;;;;;;5121528;27;20207;-66
2021/07/29 07:46:05;;;;;;;5.90;3.57;;;21.30;99.90;;;;;;5120724;27;20226;-66
2021/07/29 07:48:54;;;;;;;6.63;3.50;;;21.30;99.90;;;;;;5118176;27;20834;-66
2021/07/29 07:51:42;;;;;;;7.43;3.70;;;21.50;99.90;;;;;;5121126;27;20283;-65
2021/07/29 07:54:30;;;;;;;6.63;3.70;;;21.60;99.90;;;;;;5116578;27;20546;-66
2021/07/29 07:57:17;;;;;;;8.17;3.83;;;21.70;99.90;;;;;;5116915;27;20536;-66
2021/07/29 08:00:06;;;;;;;12.40;3.50;;;21.60;99.90;;;;;;5120324;27;20211;-66
2021/07/29 08:02:54;;;;;;;7.90;3.63;;;21.60;99.90;;;;;;5129918;27;20517;-66
2021/07/29 08:05:43;;;;;;;5.20;3.67;;;21.80;99.90;;;;;;5118035;27;20642;-66
2021/07/29 08:08:31;;;;;;;5.60;3.40;;;22.10;99.90;;;;;;5113729;28;20215;-66
2021/07/29 08:11:18;;;;;;;6.60;3.43;;;22.20;99.90;;;;;;5126340;27;20673;-66
2021/07/29 08:14:06;;;;;;;7.17;3.10;;;22.10;99.90;;;;;;5127160;28;20289;-65
2021/07/29 08:16:55;;;;;;;5.40;3.77;;;22.30;99.90;;;;;;5112232;28;20198;-66
2021/07/29 08:19:43;;;;;;;6.93;3.73;;;22.40;99.90;;;;;;5128267;28;20202;-66
2021/07/29 08:22:32;;;;;;;8.33;3.70;;;22.30;99.90;;;;;;5128681;28;20194;-66
2021/07/29 08:25:20;;;;;;;6.40;3.80;;;22.70;99.90;;;;;;5123764;28;20199;-66
2021/07/29 08:28:08;;;;;;;7.77;3.90;;;22.90;99.90;;;;;;5118981;28;20335;-66
2021/07/29 08:30:55;;;;;;;6.57;3.77;;;22.90;99.90;;;;;;5123260;27;20658;-66
2021/07/29 08:33:43;;;;;;;8.60;4.03;;;22.60;99.90;;;;;;5124721;27;20668;-66
2021/07/29 08:36:31;;;;;;;5.47;4.03;;;22.50;99.90;;;;;;5119112;27;20213;-66
2021/07/29 08:39:20;;;;;;;7.73;4.07;;;22.60;99.90;;;;;;5134003;27;20641;-66
2021/07/29 08:42:07;;;;;;;6.13;3.93;;;22.70;99.90;;;;;;5126783;27;20605;-65
2021/07/29 08:44:55;;;;;;;9.30;4.40;;;22.70;99.90;;;;;;5124889;27;20206;-66
2021/07/29 08:47:44;;;;;;;9.53;4.57;;;22.80;99.90;;;;;;5132422;27;20694;-66
2021/07/29 08:50:31;;;;;;;6.27;3.60;;;23.30;99.90;;;;;;5122511;27;20674;-66
2021/07/29 08:53:19;;;;;;;6.70;3.60;;;23.60;99.90;;;;;;5118412;27;20199;-66
2021/07/29 08:56:08;;;;;;;5.47;3.50;;;23.40;99.90;;;;;;5119591;27;20541;-66
2021/07/29 08:58:56;;;;;;;5.00;3.80;;;23.50;99.90;;;;;;5116216;27;20257;-66
2021/07/29 09:01:43;;;;;;;6.13;3.70;;;23.80;99.90;;;;;;5133912;27;20194;-66
2021/07/29 09:04:31;;;;;;;6.33;4.00;;;23.80;99.90;;;;;;5117624;27;20200;-66
2021/07/29 09:07:19;;;;;;;5.47;3.57;;;24.00;99.90;;;;;;5132577;27;20252;-66
2021/07/29 09:10:20;;;;;;;5.57;3.43;;;24.50;99.90;;;;;;5128548;27;20205;-66
2021/07/29 09:13:16;;;;;;;5.35;3.92;;;24.80;99.90;;;;;;5114456;28;20288;-66
2021/07/29 09:16:11;;;;;;;6.00;3.63;;;24.90;99.90;;;;;;5124101;27;20207;-66
2021/07/29 09:18:59;;;;;;;5.05;4.20;;;25.00;99.90;;;;;;5124888;27;20548;-66
2021/07/29 09:21:49;;;;;;;7.75;4.10;;;25.30;99.90;;;;;;5124512;27;20643;-66
2021/07/29 09:24:36;;;;;;;5.55;4.00;;;25.20;99.90;;;;;;5125279;27;20668;-66
2021/07/29 09:27:24;;;;;;;5.43;3.67;;;25.30;99.90;;;;;;5119110;27;20214;-66
2021/07/29 09:30:15;;;;;;;5.57;3.72;;;25.10;99.90;;;;;;5124042;27;20206;-66
2021/07/29 09:33:04;;;;;;;8.13;3.88;;;25.30;99.90;;;;;;5119380;27;20217;-66
2021/07/29 09:35:53;;;;;;;5.65;4.00;;;25.50;99.90;;;;;;5128693;27;20195;-66
2021/07/29 09:38:41;;;;;;;6.45;3.95;;;25.30;99.90;;;;;;5118817;27;20215;-66
2021/07/29 09:41:30;;;;;;;8.45;4.15;;;25.50;99.90;;;;;;5115736;27;20563;-66
2021/07/29 09:44:38;;;;;;;5.78;4.38;;;25.50;99.90;;;;;;5117484;27;20198;-66
2021/07/29 09:47:27;;;;;;;6.25;4.10;;;25.50;99.90;;;;;;5115185;27;20215;-66
2021/07/29 09:50:15;;;;;;;6.88;4.00;;;25.80;99.90;;;;;;5119561;27;20203;-66
2021/07/29 09:53:03;;;;;;;6.47;4.40;;;25.60;99.90;;;;;;5118590;27;20199;-66
2021/07/29 09:55:50;;;;;;;6.85;4.70;;;25.90;99.90;;;;;;5119166;27;20199;-66
2021/07/29 09:58:38;;;;;;;4.55;3.90;;;25.60;99.90;;;;;;5127379;27;20231;-66
2021/07/29 10:01:26;;;;;;;6.90;4.10;;;25.40;99.90;;;;;;5128993;27;20206;-66
2021/07/29 10:04:15;;;;;;;7.45;4.50;;;25.10;99.90;;;;;;5114987;27;20199;-66
2021/07/29 10:07:05;;;;;;;4.95;4.00;;;25.20;99.90;;;;;;5121593;27;20231;-66
2021/07/29 10:09:53;;;;;;;6.25;4.40;;;25.60;99.90;;;;;;5124719;27;20203;-66
2021/07/29 10:12:40;;;;;;;11.35;4.97;;;25.90;99.90;;;;;;5123733;27;20198;-66
2021/07/29 10:15:39;;;;;;;4.97;3.63;;;26.10;99.90;;;;;;5123175;27;20209;-66
2021/07/29 10:18:26;;;;;;;7.63;4.28;;;25.90;99.90;;;;;;5121976;27;20191;-66
2021/07/29 10:21:25;;;;;;;5.80;4.35;;;25.90;99.90;;;;;;5132037;27;20279;-66
2021/07/29 10:24:13;;;;;;;10.48;4.45;;;26.40;99.90;;;;;;5112389;28;20194;-66
2021/07/29 10:27:12;;;;;;;7.03;4.43;;;26.50;99.90;;;;;;5113351;28;20202;-66
2021/07/29 10:30:31;;;;;;;7.28;4.13;;;26.60;99.90;;;;;;5112777;28;20199;-66
2021/07/29 10:33:19;;;;;;;7.13;4.30;;;26.50;99.90;;;;;;5120453;27;20675;-66
2021/07/29 10:36:08;;;;;;;7.70;4.05;;;26.70;99.90;;;;;;5122539;27;20218;-66
2021/07/29 10:39:04;;;;;;;9.98;4.22;;;26.80;99.90;;;;;;5132048;27;20955;-66
2021/07/29 10:41:53;;;;;;;9.40;4.35;;;26.80;99.90;;;;;;5130987;27;20236;-66
2021/07/29 10:44:47;;;;;;;7.03;4.00;;;27.10;99.90;;;;;;5123979;27;20206;-66
2021/07/29 10:47:43;;;;;;;7.90;4.13;;;26.80;99.90;;;;;;5121837;27;20226;-66
2021/07/29 10:50:31;;;;;;;5.72;4.40;;;26.80;99.90;;;;;;5115881;27;20662;-65
2021/07/29 10:53:22;;;;;;;6.50;3.95;;;26.70;99.90;;;;;;5111675;28;20199;-66
2021/07/29 10:56:11;;;;;;;8.55;4.18;;;27.20;99.90;;;;;;5110972;28;20299;-66
2021/07/29 10:58:59;;;;;;;9.02;4.72;;;27.40;99.90;;;;;;5114342;27;20223;-66
2021/07/29 11:01:49;;;;;;;5.22;4.70;;;27.20;99.90;;;;;;5115831;27;20252;-65
2021/07/29 11:04:52;;;;;;;6.85;5.20;;;27.10;99.90;;;;;;5115702;27;20200;-65
2021/07/29 11:07:42;;;;;;;10.05;4.95;;;27.10;99.90;;;;;;5110788;28;20211;-66
2021/07/29 11:10:30;;;;;;;5.82;4.88;;;27.00;99.90;;;;;;5112358;28;20199;-66
2021/07/29 11:13:19;;;;;;;6.45;4.68;;;27.20;99.90;;;;;;5112271;28;20203;-66
2021/07/29 11:16:09;;;;;;;8.18;4.63;;;27.30;99.90;;;;;;5111486;28;20199;-66
2021/07/29 11:19:00;;;;;;;6.00;4.47;;;27.20;99.90;;;;;;5112267;28;20194;-66
2021/07/29 11:22:01;;;;;;;7.63;4.80;;;27.30;99.90;;;;;;5111196;28;20191;-66
2021/07/29 11:24:49;;;;;;;7.13;4.50;;;27.50;99.90;;;;;;5116940;27;20194;-66
2021/07/29 11:27:39;;;;;;;6.20;4.80;;;27.70;99.90;;;;;;5122551;27;20214;-66
2021/07/29 11:30:43;;;;;;;5.63;5.03;;;27.40;99.90;;;;;;5127141;27;20273;-66
2021/07/29 11:33:47;;;;;;;5.38;4.72;;;27.50;99.90;;;;;;5123828;27;20209;-66
2021/07/29 11:36:36;;;;;;;8.23;4.63;;;27.70;99.90;;;;;;5111425;28;20217;-66
2021/07/29 11:39:23;;;;;;;8.13;5.03;;;27.40;99.90;;;;;;5111645;28;20195;-66
2021/07/29 11:42:11;;;;;;;8.35;5.07;;;27.40;99.90;;;;;;5110626;28;20199;-66
2021/07/29 11:44:59;;;;;;;8.75;5.10;;;27.80;99.90;;;;;;5120638;27;20191;-66
2021/07/29 11:47:48;;;;;;;8.60;4.68;;;28.20;99.90;;;;;;5115655;27;20219;-65
2021/07/29 11:50:36;;;;;;;5.40;4.80;;;27.70;99.90;;;;;;5121836;27;20206;-66
2021/07/29 11:53:39;;;;;;;5.10;4.30;;;27.40;99.90;;;;;;5110778;28;20196;-66
2021/07/29 11:56:27;;;;;;;7.50;5.03;;;27.50;99.90;;;;;;5111716;28;20265;-66
2021/07/29 11:59:15;;;;;;;5.47;4.60;;;27.70;99.90;;;;;;5110538;28;20286;-66
2021/07/29 12:02:02;;;;;;;8.48;4.95;;;27.40;99.90;;;;;;5110766;28;20248;-66
2021/07/29 12:04:51;;;;;;;5.85;4.90;;;27.20;99.90;;;;;;5116294;27;20199;-65
2021/07/29 12:07:40;;;;;;;6.60;4.38;;;27.30;99.90;;;;;;5112968;28;20576;-66
2021/07/29 12:10:28;;;;;;;7.65;4.68;;;27.50;99.90;;;;;;5118503;27;20210;-66
2021/07/29 12:13:18;;;;;;;7.72;4.40;;;27.80;99.90;;;;;;5127349;27;20275;-66
2021/07/29 12:16:05;;;;;;;12.50;4.43;;;28.00;99.90;;;;;;5122065;28;20202;-66
2021/07/29 12:19:02;;;;;;;6.82;4.18;;;28.00;99.90;;;;;;5126605;28;20191;-66
2021/07/29 12:21:52;;;;;;;6.72;4.20;;;27.50;99.90;;;;;;5122301;28;20198;-66
2021/07/29 12:24:47;;;;;;;5.53;4.20;;;27.80;99.90;;;;;;5110902;28;20199;-65
2021/07/29 12:27:44;;;;;;;8.73;4.43;;;28.30;99.90;;;;;;5110898;28;20726;-66
2021/07/29 12:30:36;;;;;;;7.70;3.90;;;28.60;99.90;;;;;;5111824;28;20274;-66
2021/07/29 12:33:24;;;;;;;4.97;4.00;;;28.70;99.90;;;;;;5117540;27;20206;-65
2021/07/29 12:36:11;;;;;;;6.30;4.07;;;28.80;99.90;;;;;;5110675;28;20268;-66
2021/07/29 12:39:01;;;;;;;5.18;3.85;;;28.70;99.90;;;;;;5122795;28;20296;-66
2021/07/29 12:41:49;;;;;;;5.28;3.70;;;29.00;99.90;;;;;;5132215;27;20226;-66
2021/07/29 12:44:36;;;;;;;4.85;3.40;;;29.20;99.90;;;;;;5123822;28;20213;-66
2021/07/29 12:47:24;;;;;;;7.32;3.28;;;29.00;99.90;;;;;;5131904;28;20225;-66
2021/07/29 12:50:12;;;;;;;4.70;3.22;;;29.00;99.90;;;;;;5125939;27;20198;-66
2021/07/29 12:53:09;;;;;;;5.70;3.38;;;28.90;99.90;;;;;;5119926;28;20597;-66
2021/07/29 12:55:58;;;;;;;5.38;2.85;;;29.10;99.90;;;;;;5120677;27;20743;-66
2021/07/29 12:58:47;;;;;;;4.35;3.00;;;29.20;98.80;;;;;;5110840;28;20231;-66
2021/07/29 13:01:35;;;;;;;3.25;2.60;;;29.20;99.80;;;;;;5124723;28;20209;-66
2021/07/29 13:04:24;;;;;;;4.35;2.60;;;29.80;99.70;;;;;;5112888;28;20202;-66
2021/07/29 13:07:12;;;;;;;4.43;2.97;;;29.50;95.20;;;;;;5111254;28;20199;-66
2021/07/29 13:09:59;;;;;;;4.35;2.90;;;29.20;94.10;;;;;;5119936;28;20218;-66
2021/07/29 13:12:50;;;;;;;3.13;2.50;;;29.10;95.20;;;;;;5120008;27;20203;-65
2021/07/29 13:15:38;;;;;;;6.47;2.70;;;29.10;93.50;;;;;;5115124;28;20210;-66
2021/07/29 13:18:27;;;;;;;4.10;3.05;;;29.20;95.30;;;;;;5124569;27;20196;-66
2021/07/29 13:21:14;;;;;;;5.63;2.30;;;29.40;93.50;;;;;;5119757;27;20206;-66
2021/07/29 13:24:02;;;;;;;4.78;2.75;;;29.50;92.50;;;;;;5125634;27;20206;-65
2021/07/29 13:26:49;;;;;;;5.15;2.65;;;29.40;93.10;;;;;;5118727;27;20191;-66
2021/07/29 13:29:39;;;;;;;5.03;2.88;;;29.50;91.40;;;;;;5126609;27;20301;-66
2021/07/29 13:32:26;;;;;;;4.10;3.00;;;29.20;91.00;;;;;;5116139;27;20199;-66
2021/07/29 13:35:14;;;;;;;4.57;2.75;;;29.00;94.80;;;;;;5117264;27;20991;-65
2021/07/29 13:38:01;;;;;;;3.40;2.60;;;28.90;92.80;;;;;;5126934;27;20546;-66
2021/07/29 13:40:50;;;;;;;3.83;2.80;;;28.60;92.50;;;;;;5125559;27;20195;-65
2021/07/29 13:43:38;;;;;;;6.07;2.95;;;27.90;93.50;;;;;;5122110;27;20195;-66
2021/07/29 13:46:27;;;;;;;6.13;3.13;;;27.50;93.90;;;;;;5127091;27;20226;-66
2021/07/29 13:49:14;;;;;;;6.78;2.85;;;27.50;96.70;;;;;;5116338;27;20561;-65
2021/07/29 13:52:02;;;;;;;5.10;2.90;;;27.50;98.40;;;;;;5123725;27;20198;-66
2021/07/29 13:54:49;;;;;;;5.53;3.35;;;27.30;97.20;;;;;;5121368;27;20201;-66
2021/07/29 13:57:37;;;;;;;5.10;2.97;;;27.10;99.60;;;;;;5131596;27;20230;-66
2021/07/29 14:00:25;;;;;;;4.47;3.45;;;26.90;98.80;;;;;;5132627;27;20186;-66
2021/07/29 14:03:14;;;;;;;5.45;2.90;;;26.70;98.40;;;;;;5125418;27;20954;-65
2021/07/29 14:06:01;;;;;;;3.72;3.00;;;26.90;99.80;;;;;;5130211;27;20209;-65
2021/07/29 14:08:50;;;;;;;3.97;2.85;;;26.90;99.50;;;;;;5120686;27;20698;-65
2021/07/29 14:11:39;;;;;;;7.03;2.50;;;27.00;99.90;;;;;;5129478;27;20198;-65
2021/07/29 14:14:26;;;;;;;5.10;2.85;;;27.40;99.70;;;;;;5114695;27;20630;-65
2021/07/29 14:17:18;;;;;;;6.45;3.17;;;27.70;97.00;;;;;;5116851;27;20633;-65
2021/07/29 14:20:11;;;;;;;7.32;3.10;;;27.80;99.60;;;;;;5129368;27;20186;-66
2021/07/29 14:23:06;;;;;;;7.25;3.10;;;28.30;97.30;;;;;;5124306;27;20195;-65
2021/07/29 14:25:54;;;;;;;5.63;3.22;;;28.70;95.90;;;;;;5116335;27;20191;-66
2021/07/29 14:28:42;;;;;;;4.45;3.00;;;29.20;96.70;;;;;;5118765;27;20223;-65